sensor_id;sensor_type;location;lat;lon;timestamp;pressure;altitude;pressure_sealevel;temperature;humidity
51530;BME280;37613;51.788;21.582;2023-04-25T00:04:03;98913.98;;;13.55;59.82
51530;BME280;37613;51.788;21.582;2023-04-25T00:08:08;98908.86;;;13.46;60.14
51530;BME280;37613;51.788;21.582;2023-04-25T00:12:13;98905.21;;;13.39;60.36
51530;BME280;37613;51.788;21.582;2023-04-25T00:16:27;98897.59;;;13.32;60.41
51530;BME280;37613;51.788;21.582;2023-04-25T00:20:33;98889.13;;;13.23;60.64
51530;BME280;37613;51.788;21.582;2023-04-25T00:24:40;98882.73;;;13.14;60.94
51530;BME280;37613;51.788;21.582;2023-04-25T00:28:46;98870.71;;;13.02;61.21
51530;BME280;37613;51.788;21.582;2023-04-25T00:33:13;98870.58;;;12.92;61.38
51530;BME280;37613;51.788;21.582;2023-04-25T00:37:15;98870.39;;;12.79;61.93
51530;BME280;37613;51.788;21.582;2023-04-25T00:41:33;98864.13;;;12.66;61.86
51530;BME280;37613;51.788;21.582;2023-04-25T00:45:38;98855.77;;;12.54;62.04
51530;BME280;37613;51.788;21.582;2023-04-25T00:49:46;98854.59;;;12.42;62.34
51530;BME280;37613;51.788;21.582;2023-04-25T00:53:50;98852.57;;;12.24;63.83
51530;BME280;37613;51.788;21.582;2023-04-25T00:58:01;98849.28;;;12.03;62.98
51530;BME280;37613;51.788;21.582;2023-04-25T01:02:19;98840.70;;;11.86;63.11
51530;BME280;37613;51.788;21.582;2023-04-25T01:06:27;98841.11;;;11.76;63.61
51530;BME280;37613;51.788;21.582;2023-04-25T01:10:33;98844.29;;;11.63;63.69
51530;BME280;37613;51.788;21.582;2023-04-25T01:14:35;98842.00;;;11.54;64.17
51530;BME280;37613;51.788;21.582;2023-04-25T01:18:49;98838.95;;;11.37;64.23
51530;BME280;37613;51.788;21.582;2023-04-25T01:23:05;98841.80;;;11.14;65.34
51530;BME280;37613;51.788;21.582;2023-04-25T01:27:19;98838.45;;;10.98;65.57
51530;BME280;37613;51.788;21.582;2023-04-25T01:31:23;98835.02;;;10.89;65.25
51530;BME280;37613;51.788;21.582;2023-04-25T01:35:28;98836.17;;;10.84;66.81
51530;BME280;37613;51.788;21.582;2023-04-25T01:39:43;98834.21;;;10.76;67.28
51530;BME280;37613;51.788;21.582;2023-04-25T01:43:45;98828.24;;;10.71;66.59
51530;BME280;37613;51.788;21.582;2023-04-25T01:47:58;98828.33;;;10.64;67.06
51530;BME280;37613;51.788;21.582;2023-04-25T01:52:03;98826.70;;;10.59;66.81
51530;BME280;37613;51.788;21.582;2023-04-25T01:56:08;98826.15;;;10.55;67.88
51530;BME280;37613;51.788;21.582;2023-04-25T02:00:20;98827.50;;;10.48;69.44
51530;BME280;37613;51.788;21.582;2023-04-25T02:04:40;98828.28;;;10.41;71.59
51530;BME280;37613;51.788;21.582;2023-04-25T02:08:46;98832.95;;;10.37;69.49
51530;BME280;37613;51.788;21.582;2023-04-25T02:13:00;98829.67;;;10.34;69.17
51530;BME280;37613;51.788;21.582;2023-04-25T02:17:03;98832.23;;;10.32;70.03
51530;BME280;37613;51.788;21.582;2023-04-25T02:21:14;98831.10;;;10.30;69.32
51530;BME280;37613;51.788;21.582;2023-04-25T02:25:29;98835.09;;;10.29;69.16
51530;BME280;37613;51.788;21.582;2023-04-25T02:29:34;98836.27;;;10.29;70.24
51530;BME280;37613;51.788;21.582;2023-04-25T02:33:40;98833.42;;;10.32;72.34
51530;BME280;37613;51.788;21.582;2023-04-25T02:37:45;98831.39;;;10.35;71.42
51530;BME280;37613;51.788;21.582;2023-04-25T02:46:55;98828.13;;;10.47;70.70
51530;BME280;37613;51.788;21.582;2023-04-25T02:51:00;98832.23;;;10.55;70.72
51530;BME280;37613;51.788;21.582;2023-04-25T02:55:08;98835.30;;;10.63;70.58
51530;BME280;37613;51.788;21.582;2023-04-25T02:59:15;98840.61;;;10.70;70.49
51530;BME280;37613;51.788;21.582;2023-04-25T03:03:22;98843.84;;;10.74;70.59
51530;BME280;37613;51.788;21.582;2023-04-25T03:07:24;98840.80;;;10.75;70.52
51530;BME280;37613;51.788;21.582;2023-04-25T03:11:45;98840.90;;;10.77;70.67
51530;BME280;37613;51.788;21.582;2023-04-25T03:15:50;98835.25;;;10.82;70.72
51530;BME280;37613;51.788;21.582;2023-04-25T03:20:17;98831.30;;;10.83;70.52
51530;BME280;37613;51.788;21.582;2023-04-25T03:24:31;98839.42;;;10.76;70.59
51530;BME280;37613;51.788;21.582;2023-04-25T03:28:37;98840.83;;;10.75;71.01
51530;BME280;37613;51.788;21.582;2023-04-25T03:32:39;98841.23;;;10.77;70.95
51530;BME280;37613;51.788;21.582;2023-04-25T03:36:41;98838.24;;;10.77;71.07
51530;BME280;37613;51.788;21.582;2023-04-25T03:41:11;98836.96;;;10.73;70.92
51530;BME280;37613;51.788;21.582;2023-04-25T03:45:13;98837.02;;;10.71;71.36
51530;BME280;37613;51.788;21.582;2023-04-25T03:49:21;98842.52;;;10.76;71.55
51530;BME280;37613;51.788;21.582;2023-04-25T03:53:24;98848.23;;;10.85;71.86
51530;BME280;37613;51.788;21.582;2023-04-25T03:57:32;98853.17;;;10.94;71.69
51530;BME280;37613;51.788;21.582;2023-04-25T04:01:49;98857.25;;;11.00;71.82
51530;BME280;37613;51.788;21.582;2023-04-25T04:05:51;98860.16;;;11.26;72.66
51530;BME280;37613;51.788;21.582;2023-04-25T04:10:28;98858.88;;;11.81;73.27
51530;BME280;37613;51.788;21.582;2023-04-25T04:14:33;98865.64;;;12.36;72.99
51530;BME280;37613;51.788;21.582;2023-04-25T04:18:47;98865.40;;;12.39;71.89
51530;BME280;37613;51.788;21.582;2023-04-25T04:22:51;98868.84;;;12.15;71.75
51530;BME280;37613;51.788;21.582;2023-04-25T04:26:53;98875.02;;;11.85;72.32
51530;BME280;37613;51.788;21.582;2023-04-25T04:31:02;98879.73;;;11.67;71.96
51530;BME280;37613;51.788;21.582;2023-04-25T04:35:05;98883.94;;;11.57;72.06
51530;BME280;37613;51.788;21.582;2023-04-25T04:39:11;98886.33;;;11.50;72.26
51530;BME280;37613;51.788;21.582;2023-04-25T04:43:20;98887.52;;;11.50;72.19
51530;BME280;37613;51.788;21.582;2023-04-25T04:47:22;98882.39;;;11.46;72.27
51530;BME280;37613;51.788;21.582;2023-04-25T04:51:29;98879.31;;;11.42;72.43
51530;BME280;37613;51.788;21.582;2023-04-25T04:55:35;98877.15;;;11.36;73.08
51530;BME280;37613;51.788;21.582;2023-04-25T04:59:37;98874.63;;;11.30;73.53
51530;BME280;37613;51.788;21.582;2023-04-25T05:03:39;98873.47;;;11.32;73.02
51530;BME280;37613;51.788;21.582;2023-04-25T05:07:42;98869.17;;;11.36;74.02
51530;BME280;37613;51.788;21.582;2023-04-25T05:11:52;98866.86;;;11.40;74.66
51530;BME280;37613;51.788;21.582;2023-04-25T05:15:57;98874.39;;;11.43;74.96
51530;BME280;37613;51.788;21.582;2023-04-25T05:20:08;98870.61;;;11.46;75.38
51530;BME280;37613;51.788;21.582;2023-04-25T05:24:11;98866.86;;;11.51;75.09
51530;BME280;37613;51.788;21.582;2023-04-25T05:28:15;98870.67;;;11.62;75.54
51530;BME280;37613;51.788;21.582;2023-04-25T05:32:18;98871.38;;;11.75;76.28
51530;BME280;37613;51.788;21.582;2023-04-25T05:36:24;98877.12;;;11.84;76.53
51530;BME280;37613;51.788;21.582;2023-04-25T05:40:27;98880.90;;;11.88;77.24
51530;BME280;37613;51.788;21.582;2023-04-25T05:44:32;98887.15;;;11.87;77.04
51530;BME280;37613;51.788;21.582;2023-04-25T05:48:39;98889.21;;;11.87;77.78
51530;BME280;37613;51.788;21.582;2023-04-25T05:53:09;98889.23;;;11.84;78.07
51530;BME280;37613;51.788;21.582;2023-04-25T05:57:26;98892.26;;;11.83;77.64
51530;BME280;37613;51.788;21.582;2023-04-25T06:01:28;98888.80;;;11.78;77.26
51530;BME280;37613;51.788;21.582;2023-04-25T06:05:33;98883.14;;;11.79;77.07
51530;BME280;37613;51.788;21.582;2023-04-25T06:09:42;98884.98;;;11.79;77.25
51530;BME280;37613;51.788;21.582;2023-04-25T06:13:45;98881.86;;;11.73;78.04
51530;BME280;37613;51.788;21.582;2023-04-25T06:17:53;98880.02;;;11.67;77.75
51530;BME280;37613;51.788;21.582;2023-04-25T06:21:58;98880.92;;;11.66;77.68
51530;BME280;37613;51.788;21.582;2023-04-25T06:26:16;98883.71;;;11.66;78.69
51530;BME280;37613;51.788;21.582;2023-04-25T06:30:18;98887.38;;;11.62;78.99
51530;BME280;37613;51.788;21.582;2023-04-25T06:34:24;98888.63;;;11.56;78.79
51530;BME280;37613;51.788;21.582;2023-04-25T06:38:34;98885.45;;;11.56;79.13
51530;BME280;37613;51.788;21.582;2023-04-25T06:42:43;98886.99;;;11.52;78.86
51530;BME280;37613;51.788;21.582;2023-04-25T06:46:47;98889.45;;;11.52;79.65
51530;BME280;37613;51.788;21.582;2023-04-25T06:51:02;98890.24;;;11.49;79.24
51530;BME280;37613;51.788;21.582;2023-04-25T06:55:11;98890.75;;;11.48;79.21
51530;BME280;37613;51.788;21.582;2023-04-25T06:59:16;98892.56;;;11.48;79.67
51530;BME280;37613;51.788;21.582;2023-04-25T07:03:31;98894.42;;;11.46;79.65
51530;BME280;37613;51.788;21.582;2023-04-25T07:07:38;98894.84;;;11.45;79.85
51530;BME280;37613;51.788;21.582;2023-04-25T07:11:43;98898.22;;;11.42;79.59
51530;BME280;37613;51.788;21.582;2023-04-25T07:15:51;98906.10;;;11.47;80.01
51530;BME280;37613;51.788;21.582;2023-04-25T07:20:15;98908.22;;;11.48;79.89
51530;BME280;37613;51.788;21.582;2023-04-25T07:24:39;98912.84;;;11.47;79.77
51530;BME280;37613;51.788;21.582;2023-04-25T07:28:41;98919.03;;;11.46;79.91
51530;BME280;37613;51.788;21.582;2023-04-25T07:32:50;98916.44;;;11.45;79.70
51530;BME280;37613;51.788;21.582;2023-04-25T07:36:58;98914.48;;;11.44;79.84
51530;BME280;37613;51.788;21.582;2023-04-25T07:41:04;98917.00;;;11.38;80.01
51530;BME280;37613;51.788;21.582;2023-04-25T07:45:07;98924.65;;;11.35;79.71
51530;BME280;37613;51.788;21.582;2023-04-25T07:49:12;98928.88;;;11.34;79.74
51530;BME280;37613;51.788;21.582;2023-04-25T07:53:15;98933.58;;;11.32;80.17
51530;BME280;37613;51.788;21.582;2023-04-25T07:57:20;98943.60;;;11.33;80.55
51530;BME280;37613;51.788;21.582;2023-04-25T08:01:23;98951.41;;;11.31;80.67
51530;BME280;37613;51.788;21.582;2023-04-25T08:05:52;98958.54;;;11.27;80.21
51530;BME280;37613;51.788;21.582;2023-04-25T08:09:55;98962.89;;;11.24;80.21
51530;BME280;37613;51.788;21.582;2023-04-25T08:18:45;98953.27;;;11.12;80.54
51530;BME280;37613;51.788;21.582;2023-04-25T08:22:50;98948.98;;;11.02;80.46
51530;BME280;37613;51.788;21.582;2023-04-25T08:26:55;98948.44;;;10.98;80.70
51530;BME280;37613;51.788;21.582;2023-04-25T08:31:00;98946.11;;;10.96;80.88
51530;BME280;37613;51.788;21.582;2023-04-25T08:35:17;98947.17;;;10.94;81.73
51530;BME280;37613;51.788;21.582;2023-04-25T08:39:38;98948.18;;;10.92;81.90
51530;BME280;37613;51.788;21.582;2023-04-25T08:43:49;98950.30;;;10.88;82.49
51530;BME280;37613;51.788;21.582;2023-04-25T08:47:54;98952.41;;;10.81;83.04
51530;BME280;37613;51.788;21.582;2023-04-25T08:52:03;98960.09;;;10.77;82.92
51530;BME280;37613;51.788;21.582;2023-04-25T08:56:16;98962.87;;;10.77;82.75
51530;BME280;37613;51.788;21.582;2023-04-25T09:05:14;98968.38;;;10.81;83.08
51530;BME280;37613;51.788;21.582;2023-04-25T09:09:16;98975.23;;;10.86;83.17
51530;BME280;37613;51.788;21.582;2023-04-25T09:13:28;98972.20;;;10.95;83.55
51530;BME280;37613;51.788;21.582;2023-04-25T09:17:33;98977.96;;;11.00;83.47
51530;BME280;37613;51.788;21.582;2023-04-25T09:21:38;98979.06;;;10.96;83.35
51530;BME280;37613;51.788;21.582;2023-04-25T09:25:43;98985.60;;;10.90;83.83
51530;BME280;37613;51.788;21.582;2023-04-25T09:29:57;98990.90;;;10.82;83.97
51530;BME280;37613;51.788;21.582;2023-04-25T09:34:13;98991.86;;;10.73;85.28
51530;BME280;37613;51.788;21.582;2023-04-25T09:38:26;98994.23;;;10.57;85.33
51530;BME280;37613;51.788;21.582;2023-04-25T09:42:29;98995.33;;;10.49;85.49
51530;BME280;37613;51.788;21.582;2023-04-25T09:46:36;98999.25;;;10.43;85.71
51530;BME280;37613;51.788;21.582;2023-04-25T09:50:38;99003.73;;;10.34;85.66
51530;BME280;37613;51.788;21.582;2023-04-25T09:54:48;99008.55;;;10.26;86.38
51530;BME280;37613;51.788;21.582;2023-04-25T09:59:12;99009.65;;;10.16;86.46
51530;BME280;37613;51.788;21.582;2023-04-25T10:03:33;99008.39;;;10.07;86.17
51530;BME280;37613;51.788;21.582;2023-04-25T10:07:39;99009.33;;;9.98;86.52
51530;BME280;37613;51.788;21.582;2023-04-25T10:12:13;99011.41;;;9.95;86.97
51530;BME280;37613;51.788;21.582;2023-04-25T10:16:28;99015.11;;;9.92;86.25
51530;BME280;37613;51.788;21.582;2023-04-25T10:20:32;99019.98;;;9.88;87.23
51530;BME280;37613;51.788;21.582;2023-04-25T10:24:41;99020.48;;;9.81;87.97
51530;BME280;37613;51.788;21.582;2023-04-25T10:28:58;99022.64;;;9.79;87.08
51530;BME280;37613;51.788;21.582;2023-04-25T10:33:21;99024.60;;;9.81;86.59
51530;BME280;37613;51.788;21.582;2023-04-25T10:38:05;99025.33;;;9.79;87.59
51530;BME280;37613;51.788;21.582;2023-04-25T10:42:29;99021.23;;;9.74;87.30
51530;BME280;37613;51.788;21.582;2023-04-25T10:46:32;99021.09;;;9.73;87.38
51530;BME280;37613;51.788;21.582;2023-04-25T10:50:45;99022.48;;;9.69;87.06
51530;BME280;37613;51.788;21.582;2023-04-25T10:54:51;99025.55;;;9.64;87.00
51530;BME280;37613;51.788;21.582;2023-04-25T10:59:11;99024.36;;;9.60;87.25
51530;BME280;37613;51.788;21.582;2023-04-25T11:03:27;99022.41;;;9.53;87.47
51530;BME280;37613;51.788;21.582;2023-04-25T11:07:37;99027.05;;;9.48;87.77
51530;BME280;37613;51.788;21.582;2023-04-25T11:11:42;99028.84;;;9.45;87.75
51530;BME280;37613;51.788;21.582;2023-04-25T11:15:51;99029.77;;;9.45;87.94
51530;BME280;37613;51.788;21.582;2023-04-25T11:19:53;99030.04;;;9.49;88.69
51530;BME280;37613;51.788;21.582;2023-04-25T11:24:16;99024.27;;;9.54;88.94
51530;BME280;37613;51.788;21.582;2023-04-25T11:28:24;99026.70;;;9.61;89.51
51530;BME280;37613;51.788;21.582;2023-04-25T11:32:35;99027.38;;;9.59;89.61
51530;BME280;37613;51.788;21.582;2023-04-25T11:36:49;99027.88;;;9.63;89.47
51530;BME280;37613;51.788;21.582;2023-04-25T11:40:55;99026.17;;;9.66;89.76
51530;BME280;37613;51.788;21.582;2023-04-25T11:45:00;99026.25;;;9.66;89.69
51530;BME280;37613;51.788;21.582;2023-04-25T11:49:02;99027.86;;;9.68;89.55
51530;BME280;37613;51.788;21.582;2023-04-25T11:53:14;99031.05;;;9.70;89.35
51530;BME280;37613;51.788;21.582;2023-04-25T11:57:19;99032.32;;;9.70;90.09
51530;BME280;37613;51.788;21.582;2023-04-25T12:01:27;99025.40;;;9.63;90.69
51530;BME280;37613;51.788;21.582;2023-04-25T12:05:32;99028.27;;;9.56;90.98
51530;BME280;37613;51.788;21.582;2023-04-25T12:09:55;99025.11;;;9.52;91.85
51530;BME280;37613;51.788;21.582;2023-04-25T12:14:05;99020.14;;;9.52;90.96
51530;BME280;37613;51.788;21.582;2023-04-25T12:18:07;99023.79;;;9.56;91.09
51530;BME280;37613;51.788;21.582;2023-04-25T12:22:31;99021.52;;;9.60;90.62
51530;BME280;37613;51.788;21.582;2023-04-25T12:31:27;99021.00;;;9.68;90.43
51530;BME280;37613;51.788;21.582;2023-04-25T12:35:47;99020.92;;;9.73;90.16
51530;BME280;37613;51.788;21.582;2023-04-25T12:39:52;99020.83;;;9.69;90.30
51530;BME280;37613;51.788;21.582;2023-04-25T12:44:01;99018.83;;;9.64;90.35
51530;BME280;37613;51.788;21.582;2023-04-25T12:48:18;99016.55;;;9.64;90.34
51530;BME280;37613;51.788;21.582;2023-04-25T12:52:26;99014.43;;;9.69;90.12
51530;BME280;37613;51.788;21.582;2023-04-25T12:56:55;99011.45;;;9.73;90.13
51530;BME280;37613;51.788;21.582;2023-04-25T13:01:08;99008.60;;;9.83;90.10
51530;BME280;37613;51.788;21.582;2023-04-25T13:05:13;99006.96;;;9.92;90.03
51530;BME280;37613;51.788;21.582;2023-04-25T13:09:16;98999.61;;;9.98;89.90
51530;BME280;37613;51.788;21.582;2023-04-25T13:13:21;98996.23;;;10.06;90.06
51530;BME280;37613;51.788;21.582;2023-04-25T13:17:23;98995.95;;;10.13;89.75
51530;BME280;37613;51.788;21.582;2023-04-25T13:21:30;98996.50;;;10.17;89.77
51530;BME280;37613;51.788;21.582;2023-04-25T13:25:36;98992.78;;;10.18;89.75
51530;BME280;37613;51.788;21.582;2023-04-25T13:29:44;98992.63;;;10.18;89.39
51530;BME280;37613;51.788;21.582;2023-04-25T13:33:49;98993.44;;;10.22;89.59
51530;BME280;37613;51.788;21.582;2023-04-25T13:42:22;98992.96;;;10.14;89.22
51530;BME280;37613;51.788;21.582;2023-04-25T13:46:30;98988.80;;;10.16;89.17
51530;BME280;37613;51.788;21.582;2023-04-25T13:50:57;98988.79;;;10.22;89.05
51530;BME280;37613;51.788;21.582;2023-04-25T13:55:00;98986.30;;;10.29;89.07
51530;BME280;37613;51.788;21.582;2023-04-25T13:59:05;98989.17;;;10.31;88.81
51530;BME280;37613;51.788;21.582;2023-04-25T14:07:58;98989.47;;;10.24;88.38
51530;BME280;37613;51.788;21.582;2023-04-25T14:12:06;98993.64;;;10.15;88.18
51530;BME280;37613;51.788;21.582;2023-04-25T14:16:27;98996.66;;;10.04;88.21
51530;BME280;37613;51.788;21.582;2023-04-25T14:21:03;98999.07;;;9.96;88.05
51530;BME280;37613;51.788;21.582;2023-04-25T14:25:16;98998.39;;;9.90;88.11
51530;BME280;37613;51.788;21.582;2023-04-25T14:29:23;98999.64;;;9.82;88.14
51530;BME280;37613;51.788;21.582;2023-04-25T14:33:55;99000.84;;;9.76;88.23
51530;BME280;37613;51.788;21.582;2023-04-25T14:38:48;99003.33;;;9.73;88.25
51530;BME280;37613;51.788;21.582;2023-04-25T14:42:51;98999.08;;;9.71;88.12
51530;BME280;37613;51.788;21.582;2023-04-25T14:47:06;99001.19;;;9.68;88.00
51530;BME280;37613;51.788;21.582;2023-04-25T14:51:20;99000.30;;;9.65;87.96
51530;BME280;37613;51.788;21.582;2023-04-25T14:55:28;99001.45;;;9.62;87.97
51530;BME280;37613;51.788;21.582;2023-04-25T14:59:32;99003.65;;;9.58;87.62
51530;BME280;37613;51.788;21.582;2023-04-25T15:04:18;99001.11;;;9.47;87.60
51530;BME280;37613;51.788;21.582;2023-04-25T16:02:37;99006.46;;;9.03;88.70
51530;BME280;37613;51.788;21.582;2023-04-25T17:05:21;99036.06;;;8.72;90.25
51530;BME280;37613;51.788;21.582;2023-04-25T19:02:14;99189.00;;;6.88;95.97
51530;BME280;37613;51.788;21.582;2023-04-25T19:07:39;99189.79;;;6.85;95.96
51530;BME280;37613;51.788;21.582;2023-04-25T19:27:47;99189.40;;;6.75;96.60
51530;BME280;37613;51.788;21.582;2023-04-25T19:32:39;99193.17;;;6.76;96.80
51530;BME280;37613;51.788;21.582;2023-04-25T20:02:07;99199.85;;;6.81;96.25
51530;BME280;37613;51.788;21.582;2023-04-25T20:43:11;99204.01;;;6.82;95.99
51530;BME280;37613;51.788;21.582;2023-04-25T21:13:39;99200.23;;;6.69;96.77
51530;BME280;37613;51.788;21.582;2023-04-25T21:28:20;99193.24;;;6.68;96.32
51530;BME280;37613;51.788;21.582;2023-04-25T21:32:51;99194.42;;;6.69;96.27
51530;BME280;37613;51.788;21.582;2023-04-25T21:58:01;99199.38;;;6.80;96.32
51530;BME280;37613;51.788;21.582;2023-04-25T22:08:03;99200.63;;;6.82;96.46
51530;BME280;37613;51.788;21.582;2023-04-25T22:27:49;99205.02;;;6.80;97.08
51530;BME280;37613;51.788;21.582;2023-04-25T22:42:54;99212.64;;;6.84;96.88
51530;BME280;37613;51.788;21.582;2023-04-25T22:47:35;99213.44;;;6.85;96.96
51530;BME280;37613;51.788;21.582;2023-04-25T22:52:21;99214.77;;;6.85;96.95
51530;BME280;37613;51.788;21.582;2023-04-25T22:56:58;99214.38;;;6.88;96.85
51530;BME280;37613;51.788;21.582;2023-04-25T23:21:53;99211.86;;;6.96;97.01
51530;BME280;37613;51.788;21.582;2023-04-25T23:26:45;99209.88;;;6.98;97.04
51530;BME280;37613;51.788;21.582;2023-04-25T23:31:21;99209.02;;;7.01;97.19
51530;BME280;37613;51.788;21.582;2023-04-25T23:50:31;99211.84;;;7.05;98.12
51530;BME280;37613;51.788;21.582;2023-04-25T23:55:27;99214.59;;;7.04;98.88
